Etusivu
METAR-TAF:

METAR-TAF

Lentoasemat :

Gibraltarin lentoasema

Gibraltar, Gibraltar

Leveyspiiri: 36-09N, Pituuspiiri: 005-21W, korkeus merenpinnasta: 5 m

Tämänhetkinen sää

Tämä raportti tehtiin 38 minuuttia sitten, kello 22.50 UTC
Tuuli 4 kn idästä
Lämpötila 19°C
Kosteus 88%
Ilmanpaine 1017 hPa
Näkyvyys 10 km tai enemmän

METAR: LXGB 252250Z AUTO 09004KT 9999 NCD 19/17 Q1017

Aika: 01:28 (23:28 UTC)

Sääennuste

Tämä raportti tehtiin 7 tuntia ja 6 minuuttia sitten, kello 16.22 UTC
Ennuste voimassa 25. päivästä klo 18 UTC - 25. päivään klo 22 UTC
Tuuli 9 kn idästä
Näkyvyys 10 km tai enemmän
Muutamia pilviä 2000 ft:n korkeudessa
Ajoittain
25. päivästä klo 21 UTC - 25. päivään klo 22 UTC
Hajonneita pilviä 700 ft:n korkeudessa

TAF: LXGB 251622Z 2518/2522 08009KT 9999 FEW020 TEMPO 2521/2522 BKN007

Säähavainnot ja -ennusteet yli 4000 lentoasemalta (METAR- ja TAF-raportit).

Käytössä olevat sääasemat on merkitty karttaan keltaisilla ja punaisilla pisteillä.

Aseta hiiri pisteen päälle nähdäksesi sääaseman nimen.

Klikkaa sitten nähdäksesi säähavainnot ja -ennusteet.

Kartan vaihtaminen: klikkaa mustalla rastilla varustettuja vihreitä pisteitä, niin voit zoomata sisään; viivalla varustettua vihreää pistettä, niin voit zoomata ulos tai vihreitä nuolia, niin pääset viereisille kartoille.


METAR-TAF: